Time;durP1;ratioP1;P1;durP2;ratioP2;P2;SDS_P1;SDS_P2;PMS_P1;PMS_P2;Temp;Humidity;BMP_temperature;BMP_pressure;BME280_temperature;BME280_humidity;BME280_pressure;Samples;Min_cycle;Max_cycle;Signal;HPM_P1;HPM_P2
2021/08/14 00:01:40;;;;;;;8.77;6.85;;;;;;;;;;5033617;28;20514;-77
2021/08/14 00:04:06;;;;;;;11.90;7.22;;;;;;;;;;5035832;28;20455;-77
2021/08/14 00:06:32;;;;;;;14.02;7.95;;;;;;;;;;5035287;28;20108;-77
2021/08/14 00:08:59;;;;;;;13.10;7.65;;;;;;;;;;5035179;28;20025;-77
2021/08/14 00:11:25;;;;;;;16.60;7.75;;;;;;;;;;5034848;28;20026;-77
2021/08/14 00:13:51;;;;;;;12.15;6.97;;;;;;;;;;5030680;28;20485;-77
2021/08/14 00:16:17;;;;;;;10.35;6.55;;;;;;;;;;5015738;28;20042;-77
2021/08/14 00:18:43;;;;;;;10.73;7.03;;;;;;;;;;5015464;28;20034;-77
2021/08/14 00:21:09;;;;;;;14.10;6.47;;;;;;;;;;5015114;28;20026;-77
2021/08/14 00:23:36;;;;;;;10.45;6.32;;;;;;;;;;5015117;28;20030;-75
2021/08/14 00:26:02;;;;;;;12.23;6.53;;;;;;;;;;5014456;28;20049;-75
2021/08/14 00:28:28;;;;;;;15.75;7.55;;;;;;;;;;5029481;28;20168;-76
2021/08/14 00:30:54;;;;;;;11.73;7.03;;;;;;;;;;5034093;28;20392;-76
2021/08/14 00:33:20;;;;;;;16.27;7.63;;;;;;;;;;5034461;28;20053;-76
2021/08/14 00:35:46;;;;;;;12.18;6.55;;;;;;;;;;5034284;28;20025;-76
2021/08/14 00:38:12;;;;;;;14.88;7.22;;;;;;;;;;5034278;28;20404;-76
2021/08/14 00:40:40;;;;;;;15.68;6.43;;;;;;;;;;5034124;28;20523;-76
2021/08/14 00:43:06;;;;;;;10.95;6.55;;;;;;;;;;5031125;28;20451;-76
2021/08/14 00:45:37;;;;;;;12.93;6.93;;;;;;;;;;5014371;28;20436;-76
2021/08/14 00:48:04;;;;;;;14.20;7.10;;;;;;;;;;5012772;28;20053;-75
2021/08/14 00:50:30;;;;;;;15.88;8.05;;;;;;;;;;5012730;28;20040;-75
2021/08/14 00:52:56;;;;;;;15.32;7.05;;;;;;;;;;5013952;28;20026;-76
2021/08/14 00:55:22;;;;;;;17.55;7.43;;;;;;;;;;5014000;28;20018;-76
2021/08/14 00:57:48;;;;;;;15.68;7.50;;;;;;;;;;5014145;28;20537;-76
2021/08/14 01:00:15;;;;;;;13.93;6.78;;;;;;;;;;5013163;28;20033;-77
2021/08/14 01:02:41;;;;;;;14.65;7.00;;;;;;;;;;5015430;28;20117;-78
2021/08/14 01:05:07;;;;;;;11.70;7.68;;;;;;;;;;5022391;28;20039;-78
2021/08/14 01:07:33;;;;;;;10.70;6.40;;;;;;;;;;5025883;28;20030;-78
2021/08/14 01:09:59;;;;;;;16.77;7.30;;;;;;;;;;5034669;28;20105;-78
2021/08/14 01:12:25;;;;;;;12.57;7.68;;;;;;;;;;5034118;28;20017;-78
2021/08/14 01:14:51;;;;;;;18.50;7.53;;;;;;;;;;5033326;28;20018;-78
2021/08/14 01:17:18;;;;;;;15.45;7.20;;;;;;;;;;5034998;28;20032;-78
2021/08/14 01:19:45;;;;;;;14.00;6.63;;;;;;;;;;5035067;28;20036;-77
2021/08/14 01:22:12;;;;;;;14.63;7.32;;;;;;;;;;5032719;28;20404;-78
2021/08/14 01:24:38;;;;;;;15.45;7.28;;;;;;;;;;5034676;28;20034;-78
2021/08/14 01:27:05;;;;;;;13.75;6.93;;;;;;;;;;5032978;28;20029;-78
2021/08/14 01:29:31;;;;;;;14.27;7.05;;;;;;;;;;5034589;28;20057;-78
2021/08/14 01:31:57;;;;;;;13.55;7.90;;;;;;;;;;5033513;28;20035;-78
2021/08/14 01:34:23;;;;;;;17.00;7.40;;;;;;;;;;5034495;28;20028;-78
2021/08/14 01:36:53;;;;;;;14.73;7.68;;;;;;;;;;5034439;28;20057;-78
2021/08/14 01:39:19;;;;;;;18.38;7.97;;;;;;;;;;5032764;28;20033;-78
2021/08/14 01:41:55;;;;;;;15.18;7.15;;;;;;;;;;5033505;28;20025;-78
2021/08/14 01:44:21;;;;;;;16.80;7.38;;;;;;;;;;5019521;28;20049;-78
2021/08/14 01:46:47;;;;;;;13.73;7.30;;;;;;;;;;5014269;28;20046;-77
2021/08/14 01:49:13;;;;;;;16.02;7.28;;;;;;;;;;5012796;28;20536;-78
2021/08/14 01:51:39;;;;;;;17.48;7.38;;;;;;;;;;5013872;28;20026;-78
2021/08/14 01:54:05;;;;;;;21.67;8.02;;;;;;;;;;5014543;28;20029;-78
2021/08/14 01:56:32;;;;;;;14.50;7.15;;;;;;;;;;5014626;28;20022;-78
2021/08/14 01:58:59;;;;;;;13.95;7.50;;;;;;;;;;5014186;28;20097;-78
2021/08/14 02:01:25;;;;;;;16.05;7.88;;;;;;;;;;5014105;28;20087;-78
2021/08/14 02:03:52;;;;;;;17.75;7.28;;;;;;;;;;5014142;28;20049;-78
2021/08/14 02:06:18;;;;;;;16.90;7.63;;;;;;;;;;5013913;28;20029;-78
2021/08/14 02:08:44;;;;;;;12.50;6.93;;;;;;;;;;5014240;28;20022;-78
2021/08/14 02:11:18;;;;;;;9.65;6.80;;;;;;;;;;5013509;28;20489;-78
2021/08/14 02:13:45;;;;;;;15.93;6.97;;;;;;;;;;5024677;28;20096;-78
2021/08/14 02:16:11;;;;;;;12.27;6.80;;;;;;;;;;5033631;28;20021;-78
2021/08/14 02:18:38;;;;;;;16.08;7.10;;;;;;;;;;5033694;28;20033;-78
2021/08/14 02:21:04;;;;;;;16.23;7.03;;;;;;;;;;5033186;28;20033;-78
2021/08/14 02:23:31;;;;;;;12.35;7.10;;;;;;;;;;5033201;28;20029;-78
2021/08/14 02:25:57;;;;;;;12.18;6.40;;;;;;;;;;5032360;28;20564;-78
2021/08/14 02:28:24;;;;;;;11.70;7.13;;;;;;;;;;5019046;28;20067;-78
2021/08/14 02:30:50;;;;;;;12.07;7.00;;;;;;;;;;5014186;28;20026;-78
2021/08/14 02:33:16;;;;;;;18.35;6.90;;;;;;;;;;5013968;28;20046;-78
2021/08/14 02:35:42;;;;;;;15.27;7.15;;;;;;;;;;5012781;28;20030;-78
2021/08/14 02:38:08;;;;;;;18.83;6.75;;;;;;;;;;5013466;28;20026;-78
2021/08/14 02:40:35;;;;;;;20.48;6.80;;;;;;;;;;5014773;28;20080;-78
2021/08/14 02:43:02;;;;;;;21.30;6.57;;;;;;;;;;5015684;28;20018;-78
2021/08/14 02:45:28;;;;;;;13.85;6.47;;;;;;;;;;5033443;28;20045;-77
2021/08/14 02:47:56;;;;;;;12.63;6.40;;;;;;;;;;5033552;28;20065;-78
2021/08/14 02:50:22;;;;;;;14.93;6.40;;;;;;;;;;5033925;28;20484;-78
2021/08/14 02:52:48;;;;;;;9.82;6.28;;;;;;;;;;5037715;28;20508;-78
2021/08/14 02:55:15;;;;;;;13.65;5.90;;;;;;;;;;5037196;28;20488;-78
2021/08/14 02:57:41;;;;;;;12.32;6.75;;;;;;;;;;5037255;28;20071;-78
2021/08/14 03:00:07;;;;;;;14.75;6.40;;;;;;;;;;5037281;28;20049;-78
2021/08/14 03:02:33;;;;;;;12.88;6.13;;;;;;;;;;5037228;28;20033;-78
2021/08/14 03:04:59;;;;;;;19.52;6.47;;;;;;;;;;5036770;28;20037;-78
2021/08/14 03:07:25;;;;;;;12.32;6.20;;;;;;;;;;5037031;28;20025;-78
2021/08/14 03:09:51;;;;;;;14.68;6.47;;;;;;;;;;5036728;28;20377;-78
2021/08/14 03:12:18;;;;;;;12.13;6.43;;;;;;;;;;5036238;28;20577;-78
2021/08/14 03:14:44;;;;;;;9.43;6.40;;;;;;;;;;5017586;28;20080;-78
2021/08/14 03:17:10;;;;;;;13.82;6.85;;;;;;;;;;5017256;28;20022;-78
2021/08/14 03:19:36;;;;;;;10.68;5.97;;;;;;;;;;5017152;28;20029;-78
2021/08/14 03:22:02;;;;;;;10.02;6.47;;;;;;;;;;5016311;28;20497;-77
2021/08/14 03:24:28;;;;;;;10.15;6.28;;;;;;;;;;5015809;28;20038;-77
2021/08/14 03:26:54;;;;;;;10.88;6.15;;;;;;;;;;5019386;28;20040;-77
2021/08/14 03:29:20;;;;;;;14.10;6.18;;;;;;;;;;5036886;28;20037;-78
2021/08/14 03:31:46;;;;;;;12.45;6.78;;;;;;;;;;5036468;28;20021;-78
2021/08/14 03:34:12;;;;;;;11.35;6.43;;;;;;;;;;5036983;28;20029;-78
2021/08/14 03:36:38;;;;;;;13.00;6.35;;;;;;;;;;5036739;28;20030;-78
2021/08/14 03:39:04;;;;;;;12.75;6.38;;;;;;;;;;5036375;28;20026;-78
2021/08/14 03:41:30;;;;;;;11.90;6.13;;;;;;;;;;5036237;28;20045;-78
2021/08/14 03:43:56;;;;;;;10.20;6.22;;;;;;;;;;5036448;28;20361;-78
2021/08/14 03:46:22;;;;;;;13.32;5.65;;;;;;;;;;5036616;28;20026;-78
2021/08/14 03:48:49;;;;;;;8.82;5.75;;;;;;;;;;5036333;28;20091;-78
2021/08/14 03:51:15;;;;;;;9.90;5.95;;;;;;;;;;5035932;28;20036;-78
2021/08/14 03:53:41;;;;;;;6.95;5.50;;;;;;;;;;5036153;28;20075;-78
2021/08/14 03:56:07;;;;;;;11.32;5.70;;;;;;;;;;5036018;28;20021;-78
2021/08/14 03:58:34;;;;;;;10.90;6.10;;;;;;;;;;5036486;28;20476;-78
2021/08/14 04:01:00;;;;;;;12.52;5.95;;;;;;;;;;5034029;28;20048;-78
2021/08/14 04:03:26;;;;;;;11.35;6.70;;;;;;;;;;5034604;28;20101;-78
2021/08/14 04:05:52;;;;;;;9.98;6.03;;;;;;;;;;5035954;28;20116;-78
2021/08/14 04:08:19;;;;;;;10.43;5.95;;;;;;;;;;5035786;28;20036;-78
2021/08/14 04:10:45;;;;;;;9.30;5.68;;;;;;;;;;5036397;28;20427;-78
2021/08/14 04:13:11;;;;;;;12.15;6.15;;;;;;;;;;5036026;28;20060;-78
2021/08/14 04:15:37;;;;;;;7.68;5.72;;;;;;;;;;5035766;28;20021;-78
2021/08/14 04:18:03;;;;;;;12.18;6.55;;;;;;;;;;5035145;28;20057;-78
2021/08/14 04:20:29;;;;;;;8.43;5.28;;;;;;;;;;5035803;28;20018;-78
2021/08/14 04:22:56;;;;;;;9.73;5.90;;;;;;;;;;5035991;28;20029;-78
2021/08/14 04:25:22;;;;;;;12.73;5.72;;;;;;;;;;5035849;28;20493;-78
2021/08/14 04:27:48;;;;;;;10.88;6.18;;;;;;;;;;5034448;28;20033;-78
2021/08/14 04:30:14;;;;;;;13.38;6.20;;;;;;;;;;5034495;28;20072;-78
2021/08/14 04:32:41;;;;;;;8.80;5.40;;;;;;;;;;5034825;28;20116;-78
2021/08/14 04:35:10;;;;;;;8.80;5.93;;;;;;;;;;5035309;28;20048;-78
2021/08/14 04:37:37;;;;;;;8.00;5.82;;;;;;;;;;5035585;28;20492;-78
2021/08/14 04:40:04;;;;;;;8.35;5.70;;;;;;;;;;5033743;28;20099;-78
2021/08/14 04:42:30;;;;;;;8.00;5.70;;;;;;;;;;5034248;28;20029;-78
2021/08/14 04:44:56;;;;;;;10.05;5.97;;;;;;;;;;5034796;28;20035;-77
2021/08/14 04:47:22;;;;;;;10.10;6.00;;;;;;;;;;5035559;28;20053;-77
2021/08/14 04:49:48;;;;;;;11.02;6.72;;;;;;;;;;5033856;28;20029;-77
2021/08/14 04:52:14;;;;;;;8.25;6.10;;;;;;;;;;5035108;28;20026;-77
2021/08/14 04:54:40;;;;;;;11.20;6.13;;;;;;;;;;5034294;28;20018;-77
2021/08/14 04:57:07;;;;;;;9.77;6.22;;;;;;;;;;5034912;28;20053;-77
2021/08/14 04:59:33;;;;;;;8.73;6.07;;;;;;;;;;5035316;28;20036;-78
2021/08/14 05:01:59;;;;;;;15.35;6.60;;;;;;;;;;5034926;28;20030;-78
2021/08/14 05:04:26;;;;;;;11.90;5.75;;;;;;;;;;5035201;28;20040;-78
2021/08/14 05:06:52;;;;;;;7.88;5.55;;;;;;;;;;5033486;28;20506;-78
2021/08/14 05:09:18;;;;;;;10.85;6.72;;;;;;;;;;5035174;28;20451;-78
2021/08/14 05:11:44;;;;;;;12.52;5.65;;;;;;;;;;5034311;28;20083;-78
2021/08/14 05:14:10;;;;;;;13.45;6.20;;;;;;;;;;5034218;28;20503;-78
2021/08/14 05:16:36;;;;;;;10.85;5.80;;;;;;;;;;5033616;28;20032;-78
2021/08/14 05:19:03;;;;;;;9.15;5.70;;;;;;;;;;5035103;28;20021;-78
2021/08/14 05:21:33;;;;;;;13.85;6.20;;;;;;;;;;5034371;28;20055;-78
2021/08/14 05:23:59;;;;;;;10.30;6.05;;;;;;;;;;5033484;28;20025;-78
2021/08/14 05:26:25;;;;;;;8.45;5.95;;;;;;;;;;5035052;28;20037;-78
2021/08/14 05:28:52;;;;;;;10.68;6.00;;;;;;;;;;5016175;28;20034;-78
2021/08/14 05:31:18;;;;;;;9.82;5.95;;;;;;;;;;5013715;28;20061;-78
2021/08/14 05:33:44;;;;;;;9.93;6.07;;;;;;;;;;5014911;28;20018;-78
2021/08/14 05:36:10;;;;;;;12.05;5.72;;;;;;;;;;5013144;28;20034;-78
2021/08/14 05:38:36;;;;;;;9.40;5.80;;;;;;;;;;5015441;28;20539;-78
2021/08/14 05:41:03;;;;;;;11.35;5.68;;;;;;;;;;5013963;28;20030;-78
2021/08/14 05:43:29;;;;;;;12.23;6.45;;;;;;;;;;5020435;28;20026;-78
2021/08/14 05:45:55;;;;;;;12.95;6.50;;;;;;;;;;5034129;28;20029;-78
2021/08/14 05:48:21;;;;;;;8.63;5.53;;;;;;;;;;5033195;28;20072;-78
2021/08/14 05:50:49;;;;;;;10.38;6.45;;;;;;;;;;5033000;28;20041;-78
2021/08/14 05:53:15;;;;;;;10.55;6.40;;;;;;;;;;5034907;28;20029;-78
2021/08/14 05:55:41;;;;;;;10.60;5.82;;;;;;;;;;5034266;28;20104;-78
2021/08/14 05:58:07;;;;;;;7.95;5.50;;;;;;;;;;5034136;28;20524;-78
2021/08/14 06:00:33;;;;;;;10.13;5.65;;;;;;;;;;5034647;28;20029;-78
2021/08/14 06:03:00;;;;;;;10.70;5.50;;;;;;;;;;5033747;28;20036;-78
2021/08/14 06:05:26;;;;;;;14.23;6.57;;;;;;;;;;5032544;28;20544;-78
2021/08/14 06:07:52;;;;;;;14.52;6.55;;;;;;;;;;5034076;28;20018;-78
2021/08/14 06:10:19;;;;;;;12.48;5.80;;;;;;;;;;5034353;28;20030;-78
2021/08/14 06:12:45;;;;;;;9.82;6.07;;;;;;;;;;5033550;28;20021;-78
2021/08/14 06:15:12;;;;;;;13.38;6.70;;;;;;;;;;5032500;28;20032;-78
2021/08/14 06:17:38;;;;;;;16.55;6.43;;;;;;;;;;5034137;28;20026;-78
2021/08/14 06:20:05;;;;;;;10.05;6.32;;;;;;;;;;5034088;28;20034;-78
2021/08/14 06:22:35;;;;;;;14.45;6.43;;;;;;;;;;5033941;28;20028;-78
2021/08/14 06:25:01;;;;;;;9.02;5.63;;;;;;;;;;5032858;28;20037;-78
2021/08/14 06:27:27;;;;;;;12.70;6.18;;;;;;;;;;5032228;28;20052;-78
2021/08/14 06:29:53;;;;;;;9.82;6.03;;;;;;;;;;5033786;28;20117;-78
2021/08/14 06:32:19;;;;;;;19.63;6.93;;;;;;;;;;5031393;28;20021;-78
2021/08/14 06:34:45;;;;;;;13.07;6.65;;;;;;;;;;5033688;28;20026;-78
2021/08/14 06:37:11;;;;;;;10.75;6.43;;;;;;;;;;5033447;28;20468;-78
2021/08/14 06:39:38;;;;;;;10.68;6.07;;;;;;;;;;5034355;28;20029;-78
2021/08/14 06:42:04;;;;;;;13.10;6.93;;;;;;;;;;5033094;28;20025;-78
2021/08/14 06:44:30;;;;;;;11.05;6.65;;;;;;;;;;5033546;28;20030;-78
2021/08/14 06:46:56;;;;;;;9.73;6.30;;;;;;;;;;5031790;28;20102;-78
2021/08/14 06:49:23;;;;;;;16.80;7.13;;;;;;;;;;5033552;28;20465;-78
2021/08/14 06:51:49;;;;;;;14.75;6.80;;;;;;;;;;5032862;28;20032;-78
2021/08/14 06:54:15;;;;;;;11.63;7.00;;;;;;;;;;5033798;28;20029;-78
2021/08/14 06:56:41;;;;;;;14.75;6.80;;;;;;;;;;5033196;28;20021;-78
2021/08/14 06:59:07;;;;;;;13.68;6.47;;;;;;;;;;5033757;28;20100;-78
2021/08/14 07:01:33;;;;;;;11.52;6.10;;;;;;;;;;5032651;28;20018;-78
2021/08/14 07:03:59;;;;;;;16.30;7.10;;;;;;;;;;5033903;28;20029;-78
2021/08/14 07:06:26;;;;;;;16.63;6.65;;;;;;;;;;5033317;28;20029;-78
2021/08/14 07:08:52;;;;;;;11.45;6.40;;;;;;;;;;5033420;28;20148;-78
2021/08/14 07:11:20;;;;;;;15.35;7.35;;;;;;;;;;5031564;28;20499;-78
2021/08/14 07:13:46;;;;;;;15.80;6.90;;;;;;;;;;5033125;28;20083;-78
2021/08/14 07:16:12;;;;;;;12.32;6.72;;;;;;;;;;5032115;28;20484;-78
2021/08/14 07:18:38;;;;;;;11.65;6.40;;;;;;;;;;5033416;28;20029;-78
2021/08/14 07:21:04;;;;;;;13.05;7.07;;;;;;;;;;5032673;28;20029;-78
2021/08/14 07:23:31;;;;;;;16.25;7.30;;;;;;;;;;5033586;28;20033;-78
2021/08/14 07:25:57;;;;;;;14.05;6.70;;;;;;;;;;5031701;28;20032;-78
2021/08/14 07:28:23;;;;;;;10.98;7.13;;;;;;;;;;5018417;28;20030;-78
2021/08/14 07:30:49;;;;;;;15.02;6.90;;;;;;;;;;5012550;28;20026;-78
2021/08/14 07:33:16;;;;;;;13.65;7.25;;;;;;;;;;5013043;28;20022;-78
2021/08/14 07:35:43;;;;;;;15.80;7.57;;;;;;;;;;5014288;28;20108;-78
2021/08/14 07:38:09;;;;;;;14.30;6.78;;;;;;;;;;5015463;28;20439;-78
2021/08/14 07:40:35;;;;;;;15.18;7.28;;;;;;;;;;5017328;28;20396;-78
2021/08/14 07:43:02;;;;;;;12.18;6.80;;;;;;;;;;5018831;28;20374;-78
2021/08/14 07:45:28;;;;;;;12.02;6.55;;;;;;;;;;5036638;28;20076;-77
2021/08/14 07:47:54;;;;;;;12.32;6.05;;;;;;;;;;5036210;28;20049;-78
2021/08/14 07:50:27;;;;;;;13.38;6.60;;;;;;;;;;5036719;28;20088;-78
2021/08/14 07:52:53;;;;;;;11.60;6.90;;;;;;;;;;5034945;28;20048;-78
2021/08/14 07:55:20;;;;;;;9.77;6.50;;;;;;;;;;5036277;28;20097;-78
2021/08/14 07:57:46;;;;;;;16.67;6.57;;;;;;;;;;5036090;28;20480;-78
2021/08/14 08:00:15;;;;;;;15.82;6.80;;;;;;;;;;5036165;28;20044;-78
2021/08/14 08:02:41;;;;;;;13.70;6.95;;;;;;;;;;5035789;28;20100;-78
2021/08/14 08:05:08;;;;;;;15.10;6.45;;;;;;;;;;5036340;28;20057;-78
2021/08/14 08:07:34;;;;;;;11.68;6.80;;;;;;;;;;5035670;28;20079;-78
2021/08/14 08:10:02;;;;;;;13.25;6.25;;;;;;;;;;5035783;28;20053;-78
2021/08/14 08:12:28;;;;;;;13.55;7.28;;;;;;;;;;5034933;28;20041;-78
2021/08/14 08:14:55;;;;;;;11.40;6.30;;;;;;;;;;5016130;28;20025;-78
2021/08/14 08:17:21;;;;;;;14.35;7.18;;;;;;;;;;5015903;28;20109;-78
2021/08/14 08:19:47;;;;;;;14.23;7.32;;;;;;;;;;5016014;28;20048;-78
2021/08/14 08:22:13;;;;;;;12.13;6.60;;;;;;;;;;5015524;28;20030;-78
2021/08/14 08:24:39;;;;;;;12.32;7.18;;;;;;;;;;5016043;28;20025;-78
2021/08/14 08:27:05;;;;;;;13.35;7.38;;;;;;;;;;5018222;28;20026;-78
2021/08/14 08:29:31;;;;;;;13.27;7.50;;;;;;;;;;5035530;28;20476;-78
2021/08/14 08:31:57;;;;;;;26.42;15.77;;;;;;;;;;5035127;28;20036;-78
2021/08/14 08:34:26;;;;;;;37.60;24.98;;;;;;;;;;5035544;28;20052;-78
2021/08/14 08:36:53;;;;;;;34.75;25.58;;;;;;;;;;5035534;28;20476;-78
2021/08/14 08:39:19;;;;;;;32.58;23.55;;;;;;;;;;5035075;28;20013;-78
2021/08/14 08:41:45;;;;;;;31.02;21.92;;;;;;;;;;5034969;28;20026;-78
2021/08/14 08:44:12;;;;;;;27.17;20.00;;;;;;;;;;5035361;28;20041;-78
2021/08/14 08:46:39;;;;;;;27.65;20.10;;;;;;;;;;5067270;28;20041;-78
2021/08/14 08:49:05;;;;;;;26.83;18.52;;;;;;;;;;5034191;28;20037;-78
2021/08/14 08:51:32;;;;;;;22.40;16.85;;;;;;;;;;5066635;28;20030;-78
2021/08/14 08:53:59;;;;;;;18.40;14.70;;;;;;;;;;5034853;28;20056;-78
2021/08/14 08:56:25;;;;;;;21.85;14.35;;;;;;;;;;5035419;28;20087;-78
2021/08/14 08:58:51;;;;;;;19.23;13.20;;;;;;;;;;5034731;28;20396;-78
2021/08/14 09:01:18;;;;;;;21.35;12.07;;;;;;;;;;5034829;28;20613;-78
2021/08/14 09:03:44;;;;;;;20.45;13.98;;;;;;;;;;5035206;28;20491;-78
2021/08/14 09:06:11;;;;;;;21.77;16.50;;;;;;;;;;5034551;28;20032;-78
2021/08/14 09:08:37;;;;;;;26.27;19.10;;;;;;;;;;5066722;28;20036;-78
2021/08/14 09:11:07;;;;;;;22.58;16.13;;;;;;;;;;5034322;28;20032;-78
2021/08/14 09:13:34;;;;;;;20.95;13.40;;;;;;;;;;5025114;28;20495;-78
2021/08/14 09:16:17;;;;;;;20.73;13.30;;;;;;;;;;5013746;28;20503;-78
2021/08/14 09:18:56;;;;;;;25.55;18.27;;;;;;;;;;5014788;28;20485;-78
2021/08/14 09:21:29;;;;;;;26.58;19.38;;;;;;;;;;5014506;28;20041;-78
2021/08/14 09:23:55;;;;;;;;;;;;;;;;;;5014950;28;20030;-78
2021/08/14 09:26:21;;;;;;;23.80;16.63;;;;;;;;;;5015270;28;19917;-78
2021/08/14 09:28:47;;;;;;;21.83;16.05;;;;;;;;;;5032351;28;20049;-78
2021/08/14 09:31:14;;;;;;;26.02;14.73;;;;;;;;;;5033914;28;20036;-78
2021/08/14 09:33:40;;;;;;;19.60;13.32;;;;;;;;;;5066331;28;20025;-78
2021/08/14 09:36:07;;;;;;;21.65;15.23;;;;;;;;;;5033994;28;20029;-78
2021/08/14 09:38:50;;;;;;;21.23;14.25;;;;;;;;;;5034247;28;20021;-78
2021/08/14 09:41:20;;;;;;;18.48;13.55;;;;;;;;;;5033795;28;20029;-78
2021/08/14 09:43:48;;;;;;;18.75;12.32;;;;;;;;;;5033796;28;20034;-78
2021/08/14 09:46:14;;;;;;;17.90;12.15;;;;;;;;;;5033980;28;20160;-77
2021/08/14 09:48:41;;;;;;;16.63;12.30;;;;;;;;;;5034210;28;20050;-78
2021/08/14 09:51:45;;;;;;;15.27;11.05;;;;;;;;;;5033368;28;20087;-78
2021/08/14 09:54:11;;;;;;;17.65;10.88;;;;;;;;;;4975918;28;20030;-78
2021/08/14 09:56:37;;;;;;;15.75;9.45;;;;;;;;;;4992918;28;20120;-78
2021/08/14 09:59:04;;;;;;;15.13;9.50;;;;;;;;;;5012077;28;20447;-78
2021/08/14 10:01:32;;;;;;;16.52;10.50;;;;;;;;;;5033538;28;20036;-78
2021/08/14 10:03:59;;;;;;;16.83;10.05;;;;;;;;;;5034248;28;20033;-78
2021/08/14 10:06:25;;;;;;;12.60;8.57;;;;;;;;;;5033821;28;20026;-78
2021/08/14 10:08:51;;;;;;;11.75;8.73;;;;;;;;;;5034150;28;20037;-78
2021/08/14 10:11:18;;;;;;;14.27;9.63;;;;;;;;;;5033054;28;20048;-78
2021/08/14 10:13:45;;;;;;;12.80;9.20;;;;;;;;;;5033428;28;20049;-78
2021/08/14 10:16:11;;;;;;;12.68;8.23;;;;;;;;;;5033519;28;20025;-78
2021/08/14 10:18:41;;;;;;;17.92;8.82;;;;;;;;;;5034056;28;20053;-78
2021/08/14 10:21:07;;;;;;;11.82;8.32;;;;;;;;;;5032628;28;20404;-78
2021/08/14 10:23:34;;;;;;;13.15;8.13;;;;;;;;;;5033989;28;20086;-78
2021/08/14 10:26:04;;;;;;;14.18;8.70;;;;;;;;;;5033359;28;20060;-78
2021/08/14 10:28:42;;;;;;;12.52;8.15;;;;;;;;;;5018035;28;20026;-78
2021/08/14 10:31:08;;;;;;;11.70;8.30;;;;;;;;;;5012159;28;20493;-78
2021/08/14 10:33:35;;;;;;;13.10;9.07;;;;;;;;;;5013776;28;20037;-78
2021/08/14 10:36:17;;;;;;;11.98;8.18;;;;;;;;;;5013576;28;20025;-78
2021/08/14 10:38:43;;;;;;;10.52;7.32;;;;;;;;;;5012255;28;20036;-78
2021/08/14 10:41:10;;;;;;;12.70;8.43;;;;;;;;;;5012635;28;20030;-78
2021/08/14 10:43:54;;;;;;;11.93;8.32;;;;;;;;;;5020924;28;20021;-78
2021/08/14 10:46:32;;;;;;;13.40;7.70;;;;;;;;;;5031629;28;20032;-78
2021/08/14 10:48:59;;;;;;;11.10;7.97;;;;;;;;;;5032086;28;20492;-78
2021/08/14 10:51:44;;;;;;;13.32;8.07;;;;;;;;;;5031419;28;20036;-78
2021/08/14 10:54:10;;;;;;;13.68;7.65;;;;;;;;;;5033981;28;20048;-78
2021/08/14 10:56:55;;;;;;;12.48;7.72;;;;;;;;;;5033600;28;20498;-78
2021/08/14 10:59:39;;;;;;;9.70;6.97;;;;;;;;;;5033715;28;20030;-78
2021/08/14 11:02:08;;;;;;;9.82;7.07;;;;;;;;;;5032854;28;20018;-78
2021/08/14 11:04:37;;;;;;;9.65;6.80;;;;;;;;;;5033732;28;20026;-78
2021/08/14 11:07:19;;;;;;;11.35;7.53;;;;;;;;;;5033109;28;20097;-78
2021/08/14 11:09:47;;;;;;;9.68;7.10;;;;;;;;;;5033415;28;20514;-78
2021/08/14 11:12:32;;;;;;;11.43;7.18;;;;;;;;;;5035831;28;20021;-78
2021/08/14 11:15:16;;;;;;;11.07;6.60;;;;;;;;;;5015819;28;20030;-78
2021/08/14 11:17:43;;;;;;;13.25;7.32;;;;;;;;;;5017092;28;20025;-78
2021/08/14 11:20:21;;;;;;;13.32;7.45;;;;;;;;;;5017452;28;20092;-78
2021/08/14 11:22:54;;;;;;;9.85;6.15;;;;;;;;;;5016147;28;20026;-78
2021/08/14 11:25:29;;;;;;;12.20;6.53;;;;;;;;;;5017158;28;20030;-78
2021/08/14 11:28:08;;;;;;;8.43;5.75;;;;;;;;;;5027589;28;20392;-78
2021/08/14 11:30:39;;;;;;;12.60;6.70;;;;;;;;;;5037014;28;20061;-78
2021/08/14 11:33:06;;;;;;;11.68;5.88;;;;;;;;;;5036237;28;20123;-78
2021/08/14 11:35:33;;;;;;;10.38;5.68;;;;;;;;;;5036664;28;20036;-78
2021/08/14 11:38:04;;;;;;;6.93;4.80;;;;;;;;;;5036192;28;20040;-78
2021/08/14 11:40:31;;;;;;;12.10;6.00;;;;;;;;;;5036572;28;20040;-78
2021/08/14 11:43:03;;;;;;;10.93;5.50;;;;;;;;;;5034936;28;20026;-78
2021/08/14 11:45:29;;;;;;;13.82;5.75;;;;;;;;;;5036184;28;20034;-77
2021/08/14 11:48:06;;;;;;;11.25;5.57;;;;;;;;;;5036287;28;20041;-78
2021/08/14 11:50:33;;;;;;;8.43;5.45;;;;;;;;;;5034920;28;20036;-78
2021/08/14 11:53:00;;;;;;;12.80;6.03;;;;;;;;;;5034538;28;20013;-78
2021/08/14 11:55:26;;;;;;;7.82;5.20;;;;;;;;;;5036646;28;20106;-77
2021/08/14 11:57:52;;;;;;;13.43;5.15;;;;;;;;;;5036497;28;20022;-77
2021/08/14 12:00:18;;;;;;;12.05;5.75;;;;;;;;;;5035151;28;20452;-78
2021/08/14 12:02:48;;;;;;;11.63;5.00;;;;;;;;;;5036085;28;20519;-78
2021/08/14 12:05:14;;;;;;;12.75;6.22;;;;;;;;;;5036563;28;20380;-78
2021/08/14 12:07:45;;;;;;;11.10;5.80;;;;;;;;;;5036482;28;20552;-78
2021/08/14 12:10:11;;;;;;;10.55;5.53;;;;;;;;;;5034548;28;20029;-78
2021/08/14 12:12:38;;;;;;;12.80;6.10;;;;;;;;;;5036042;28;20023;-77
2021/08/14 12:15:10;;;;;;;11.57;6.13;;;;;;;;;;5036073;28;20125;-77
2021/08/14 12:17:43;;;;;;;11.75;6.47;;;;;;;;;;5035798;28;20013;-78
2021/08/14 12:20:09;;;;;;;9.20;5.95;;;;;;;;;;5035879;28;20030;-78
2021/08/14 12:22:37;;;;;;;11.73;5.63;;;;;;;;;;5034567;28;20026;-78
2021/08/14 12:25:23;;;;;;;29.80;21.50;;;;;;;;;;5035971;28;20489;-78
2021/08/14 12:27:49;;;;;;;40.35;30.23;;;;;;;;;;5034462;28;20108;-78
2021/08/14 12:30:16;;;;;;;27.40;22.50;;;;;;;;;;5036054;28;20431;-78
2021/08/14 12:32:42;;;;;;;30.63;24.38;;;;;;;;;;5035400;28;20025;-78
2021/08/14 12:35:19;;;;;;;27.17;21.50;;;;;;;;;;5035714;28;20025;-77
2021/08/14 12:37:45;;;;;;;28.20;21.50;;;;;;;;;;5067278;28;20080;-78
2021/08/14 12:40:12;;;;;;;22.88;16.40;;;;;;;;;;5034912;28;20045;-78
2021/08/14 12:42:38;;;;;;;24.00;18.73;;;;;;;;;;5035331;28;20055;-77
2021/08/14 12:45:24;;;;;;;51.33;32.67;;;;;;;;;;5035294;28;20113;-77
2021/08/14 12:47:51;;;;;;;49.85;30.83;;;;;;;;;;5033364;28;20543;-78
2021/08/14 12:50:23;;;;;;;45.90;31.20;;;;;;;;;;5035524;28;20083;-78
2021/08/14 12:52:54;;;;;;;43.30;28.25;;;;;;;;;;5033549;28;20403;-78
2021/08/14 12:55:39;;;;;;;30.10;21.45;;;;;;;;;;5035177;28;20037;-78
2021/08/14 12:58:07;;;;;;;71.68;51.30;;;;;;;;;;5034559;28;20018;-77
2021/08/14 13:00:34;;;;;;;106.20;77.82;;;;;;;;;;5033823;28;20124;-78
2021/08/14 13:03:00;;;;;;;77.25;50.28;;;;;;;;;;5034834;28;20492;-78
2021/08/14 13:05:26;;;;;;;67.85;49.45;;;;;;;;;;5035050;28;20047;-78
2021/08/14 13:07:52;;;;;;;58.72;41.78;;;;;;;;;;5034615;28;20025;-78
2021/08/14 13:10:19;;;;;;;50.63;35.28;;;;;;;;;;5034381;28;20442;-78
2021/08/14 13:12:49;;;;;;;51.22;38.60;;;;;;;;;;5034437;28;20097;-78
2021/08/14 13:15:15;;;;;;;47.65;32.55;;;;;;;;;;5066815;28;20032;-78
2021/08/14 13:17:42;;;;;;;47.20;33.85;;;;;;;;;;5034842;28;20507;-78
2021/08/14 13:20:08;;;;;;;37.83;26.77;;;;;;;;;;5034803;28;20396;-78
2021/08/14 13:22:34;;;;;;;40.08;27.95;;;;;;;;;;5066043;28;20028;-77
2021/08/14 13:25:00;;;;;;;36.97;24.80;;;;;;;;;;5066620;28;20025;-77
2021/08/14 13:27:26;;;;;;;31.75;22.23;;;;;;;;;;5027108;28;20026;-77
2021/08/14 13:29:52;;;;;;;33.50;22.60;;;;;;;;;;5014787;28;20030;-77
2021/08/14 13:32:18;;;;;;;27.63;18.75;;;;;;;;;;5013971;28;20026;-77
2021/08/14 13:34:46;;;;;;;24.75;18.00;;;;;;;;;;5012852;28;20036;-78
2021/08/14 13:37:13;;;;;;;22.50;16.63;;;;;;;;;;5014575;28;20068;-78
2021/08/14 13:39:39;;;;;;;27.13;18.92;;;;;;;;;;5014313;28;20477;-78
2021/08/14 13:42:09;;;;;;;26.45;18.80;;;;;;;;;;5014041;28;20018;-78
2021/08/14 13:44:35;;;;;;;21.70;15.45;;;;;;;;;;5028902;28;20480;-78
2021/08/14 13:47:01;;;;;;;21.42;15.45;;;;;;;;;;5066139;28;20041;-78
2021/08/14 13:49:27;;;;;;;19.08;15.00;;;;;;;;;;5065902;28;20025;-77
2021/08/14 13:51:53;;;;;;;23.73;17.00;;;;;;;;;;5033715;28;20499;-77
2021/08/14 13:54:19;;;;;;;20.13;15.52;;;;;;;;;;5033897;28;20025;-77
2021/08/14 13:56:45;;;;;;;20.13;15.38;;;;;;;;;;5034147;28;20080;-77
2021/08/14 13:59:11;;;;;;;18.25;14.73;;;;;;;;;;5034093;28;20122;-77
2021/08/14 14:01:37;;;;;;;19.35;13.40;;;;;;;;;;5033681;28;20040;-77
2021/08/14 14:04:03;;;;;;;21.92;14.02;;;;;;;;;;5033834;28;20025;-77
2021/08/14 14:06:29;;;;;;;15.98;13.30;;;;;;;;;;5034379;28;20052;-77
2021/08/14 14:08:55;;;;;;;16.73;11.98;;;;;;;;;;5033995;28;20026;-77
2021/08/14 14:11:22;;;;;;;17.10;11.85;;;;;;;;;;5033523;28;20057;-77
2021/08/14 14:13:49;;;;;;;17.45;11.82;;;;;;;;;;5022383;28;20064;-77
2021/08/14 14:16:15;;;;;;;15.68;11.07;;;;;;;;;;5014273;28;20101;-77
2021/08/14 14:18:41;;;;;;;13.63;10.13;;;;;;;;;;5014023;28;20076;-77
2021/08/14 14:21:07;;;;;;;14.82;9.75;;;;;;;;;;5013457;28;20037;-77
2021/08/14 14:23:33;;;;;;;12.60;9.15;;;;;;;;;;5014247;28;20392;-77
2021/08/14 14:25:59;;;;;;;14.40;8.82;;;;;;;;;;5014255;28;20025;-77
2021/08/14 14:28:25;;;;;;;12.93;9.40;;;;;;;;;;5028553;28;20093;-77
2021/08/14 14:30:51;;;;;;;13.93;9.55;;;;;;;;;;5033860;28;20455;-77